sensor_id;sensor_type;location;lat;lon;timestamp;temperature;humidity
3790;DHT22;1910;49.042;9.028;2023-05-23T00:01:20;16.80;99.90
3790;DHT22;1910;49.042;9.028;2023-05-23T00:08:39;16.70;99.90
3790;DHT22;1910;49.042;9.028;2023-05-23T00:13:31;16.70;99.90
3790;DHT22;1910;49.042;9.028;2023-05-23T00:15:59;16.70;99.90
3790;DHT22;1910;49.042;9.028;2023-05-23T00:23:16;16.60;99.90
3790;DHT22;1910;49.042;9.028;2023-05-23T00:25:45;16.60;99.90
3790;DHT22;1910;49.042;9.028;2023-05-23T00:30:42;16.60;99.90
3790;DHT22;1910;49.042;9.028;2023-05-23T00:33:08;16.50;99.90
3790;DHT22;1910;49.042;9.028;2023-05-23T00:35:34;16.50;99.90
3790;DHT22;1910;49.042;9.028;2023-05-23T00:40:26;16.50;99.90
3790;DHT22;1910;49.042;9.028;2023-05-23T00:45:18;16.40;99.90
3790;DHT22;1910;49.042;9.028;2023-05-23T00:47:46;16.40;99.90
3790;DHT22;1910;49.042;9.028;2023-05-23T00:50:13;16.40;99.90
3790;DHT22;1910;49.042;9.028;2023-05-23T00:52:40;16.40;99.90
3790;DHT22;1910;49.042;9.028;2023-05-23T00:55:07;16.40;99.90
3790;DHT22;1910;49.042;9.028;2023-05-23T00:57:36;16.40;99.90
3790;DHT22;1910;49.042;9.028;2023-05-23T01:00:09;16.30;99.90
3790;DHT22;1910;49.042;9.028;2023-05-23T01:02:43;16.30;99.90
3790;DHT22;1910;49.042;9.028;2023-05-23T01:05:11;16.30;99.90
3790;DHT22;1910;49.042;9.028;2023-05-23T01:07:39;16.30;99.90
3790;DHT22;1910;49.042;9.028;2023-05-23T01:10:06;16.30;99.90
3790;DHT22;1910;49.042;9.028;2023-05-23T01:12:42;16.20;99.90
3790;DHT22;1910;49.042;9.028;2023-05-23T01:15:19;16.20;99.90
3790;DHT22;1910;49.042;9.028;2023-05-23T01:17:58;16.20;99.90
3790;DHT22;1910;49.042;9.028;2023-05-23T01:20:29;16.20;99.90
3790;DHT22;1910;49.042;9.028;2023-05-23T01:28:16;16.30;99.90
3790;DHT22;1910;49.042;9.028;2023-05-23T01:30:45;16.30;99.90
3790;DHT22;1910;49.042;9.028;2023-05-23T01:33:13;16.30;99.90
3790;DHT22;1910;49.042;9.028;2023-05-23T01:35:40;17.70;99.90
3790;DHT22;1910;49.042;9.028;2023-05-23T01:50:19;16.50;99.90
3790;DHT22;1910;49.042;9.028;2023-05-23T01:52:46;16.50;99.90
3790;DHT22;1910;49.042;9.028;2023-05-23T01:55:13;16.50;99.90
3790;DHT22;1910;49.042;9.028;2023-05-23T01:57:40;16.50;99.90
3790;DHT22;1910;49.042;9.028;2023-05-23T02:00:06;16.50;99.90
3790;DHT22;1910;49.042;9.028;2023-05-23T02:02:33;16.50;99.90
3790;DHT22;1910;49.042;9.028;2023-05-23T02:19:38;16.40;99.90
3790;DHT22;1910;49.042;9.028;2023-05-23T02:22:03;16.40;99.90
3790;DHT22;1910;49.042;9.028;2023-05-23T02:24:29;16.40;99.90
3790;DHT22;1910;49.042;9.028;2023-05-23T02:26:55;16.40;99.90
3790;DHT22;1910;49.042;9.028;2023-05-23T02:31:46;16.40;99.90
3790;DHT22;1910;49.042;9.028;2023-05-23T02:41:30;16.40;99.90
3790;DHT22;1910;49.042;9.028;2023-05-23T02:43:57;16.40;99.90
3790;DHT22;1910;49.042;9.028;2023-05-23T02:46:23;16.40;99.90
3790;DHT22;1910;49.042;9.028;2023-05-23T02:48:48;17.40;99.90
3790;DHT22;1910;49.042;9.028;2023-05-23T02:51:14;16.40;99.90
3790;DHT22;1910;49.042;9.028;2023-05-23T02:53:39;16.40;99.90
3790;DHT22;1910;49.042;9.028;2023-05-23T02:56:05;16.40;99.90
3790;DHT22;1910;49.042;9.028;2023-05-23T02:58:33;16.30;99.90
3790;DHT22;1910;49.042;9.028;2023-05-23T03:01:01;16.30;99.90
3790;DHT22;1910;49.042;9.028;2023-05-23T03:03:26;16.30;99.90
3790;DHT22;1910;49.042;9.028;2023-05-23T03:13:11;16.20;99.90
3790;DHT22;1910;49.042;9.028;2023-05-23T03:15:36;16.20;99.90
3790;DHT22;1910;49.042;9.028;2023-05-23T03:18:02;16.30;99.90
3790;DHT22;1910;49.042;9.028;2023-05-23T03:20:27;16.20;99.90
3790;DHT22;1910;49.042;9.028;2023-05-23T03:22:53;16.20;99.90
3790;DHT22;1910;49.042;9.028;2023-05-23T03:25:18;16.10;99.90
3790;DHT22;1910;49.042;9.028;2023-05-23T03:27:44;16.10;99.90
3790;DHT22;1910;49.042;9.028;2023-05-23T03:30:10;16.10;99.90
3790;DHT22;1910;49.042;9.028;2023-05-23T03:32:36;16.00;99.90
3790;DHT22;1910;49.042;9.028;2023-05-23T03:35:01;16.00;99.90
3790;DHT22;1910;49.042;9.028;2023-05-23T03:37:27;15.90;99.90
3790;DHT22;1910;49.042;9.028;2023-05-23T03:47:10;15.90;99.90
3790;DHT22;1910;49.042;9.028;2023-05-23T03:52:02;16.00;99.90
3790;DHT22;1910;49.042;9.028;2023-05-23T03:54:28;15.90;99.90
3790;DHT22;1910;49.042;9.028;2023-05-23T04:06:37;16.10;99.90
3790;DHT22;1910;49.042;9.028;2023-05-23T04:18:50;16.10;99.90
3790;DHT22;1910;49.042;9.028;2023-05-23T04:33:28;16.20;99.90
3790;DHT22;1910;49.042;9.028;2023-05-23T04:38:21;16.30;99.90
3790;DHT22;1910;49.042;9.028;2023-05-23T04:40:49;16.30;99.90
3790;DHT22;1910;49.042;9.028;2023-05-23T04:43:16;16.30;99.90
3790;DHT22;1910;49.042;9.028;2023-05-23T04:45:42;16.30;99.90
3790;DHT22;1910;49.042;9.028;2023-05-23T04:53:02;16.50;99.90
3790;DHT22;1910;49.042;9.028;2023-05-23T04:57:53;16.60;99.90
3790;DHT22;1910;49.042;9.028;2023-05-23T05:00:19;16.80;99.90
3790;DHT22;1910;49.042;9.028;2023-05-23T05:02:44;16.70;99.90
3790;DHT22;1910;49.042;9.028;2023-05-23T05:05:10;17.00;99.90
3790;DHT22;1910;49.042;9.028;2023-05-23T05:10:02;18.10;99.90
3790;DHT22;1910;49.042;9.028;2023-05-23T05:39:22;19.70;99.90
3790;DHT22;1910;49.042;9.028;2023-05-23T05:53:58;18.80;99.90
3790;DHT22;1910;49.042;9.028;2023-05-23T05:56:23;18.70;99.90
3790;DHT22;1910;49.042;9.028;2023-05-23T05:58:49;18.60;99.90
3790;DHT22;1910;49.042;9.028;2023-05-23T06:01:14;17.90;99.90
3790;DHT22;1910;49.042;9.028;2023-05-23T06:03:40;17.90;99.90
3790;DHT22;1910;49.042;9.028;2023-05-23T06:06:05;18.00;99.90
3790;DHT22;1910;49.042;9.028;2023-05-23T06:08:33;17.90;99.90
3790;DHT22;1910;49.042;9.028;2023-05-23T06:10:58;18.10;99.90
3790;DHT22;1910;49.042;9.028;2023-05-23T06:13:24;17.90;99.90
3790;DHT22;1910;49.042;9.028;2023-05-23T06:15:49;17.60;99.90
3790;DHT22;1910;49.042;9.028;2023-05-23T06:20:41;17.70;99.90
3790;DHT22;1910;49.042;9.028;2023-05-23T06:23:06;17.10;99.90
3790;DHT22;1910;49.042;9.028;2023-05-23T06:25:33;16.70;99.90
3790;DHT22;1910;49.042;9.028;2023-05-23T06:27:58;16.60;99.90
3790;DHT22;1910;49.042;9.028;2023-05-23T06:30:25;16.30;99.90
3790;DHT22;1910;49.042;9.028;2023-05-23T06:32:50;16.20;99.90
3790;DHT22;1910;49.042;9.028;2023-05-23T06:35:16;16.10;99.90
3790;DHT22;1910;49.042;9.028;2023-05-23T06:37:42;16.10;99.90
3790;DHT22;1910;49.042;9.028;2023-05-23T06:40:10;16.00;99.90
3790;DHT22;1910;49.042;9.028;2023-05-23T06:42:36;16.00;99.90
3790;DHT22;1910;49.042;9.028;2023-05-23T06:45:01;16.20;99.90
3790;DHT22;1910;49.042;9.028;2023-05-23T06:47:27;16.20;99.90
3790;DHT22;1910;49.042;9.028;2023-05-23T06:49:53;16.10;99.90
3790;DHT22;1910;49.042;9.028;2023-05-23T06:52:18;16.10;99.90
3790;DHT22;1910;49.042;9.028;2023-05-23T06:54:43;16.00;99.90
3790;DHT22;1910;49.042;9.028;2023-05-23T06:57:09;16.00;99.90
3790;DHT22;1910;49.042;9.028;2023-05-23T06:59:35;15.90;99.90
3790;DHT22;1910;49.042;9.028;2023-05-23T07:02:00;15.90;99.90
3790;DHT22;1910;49.042;9.028;2023-05-23T07:04:26;16.10;99.90
3790;DHT22;1910;49.042;9.028;2023-05-23T07:06:52;16.10;99.90
3790;DHT22;1910;49.042;9.028;2023-05-23T07:09:17;16.30;99.90
3790;DHT22;1910;49.042;9.028;2023-05-23T07:11:43;16.20;99.90
3790;DHT22;1910;49.042;9.028;2023-05-23T07:14:09;16.30;99.90
3790;DHT22;1910;49.042;9.028;2023-05-23T07:16:34;16.30;99.90
3790;DHT22;1910;49.042;9.028;2023-05-23T07:19:01;16.30;99.90
3790;DHT22;1910;49.042;9.028;2023-05-23T07:26:19;16.90;99.90
3790;DHT22;1910;49.042;9.028;2023-05-23T07:28:44;16.80;99.90
3790;DHT22;1910;49.042;9.028;2023-05-23T07:31:10;16.70;99.90
3790;DHT22;1910;49.042;9.028;2023-05-23T07:36:03;16.40;99.90
3790;DHT22;1910;49.042;9.028;2023-05-23T07:38:29;16.80;99.90
3790;DHT22;1910;49.042;9.028;2023-05-23T07:40:54;16.60;99.90
3790;DHT22;1910;49.042;9.028;2023-05-23T07:43:20;16.20;99.90
3790;DHT22;1910;49.042;9.028;2023-05-23T07:45:46;16.20;99.90
3790;DHT22;1910;49.042;9.028;2023-05-23T07:48:12;16.40;99.90
3790;DHT22;1910;49.042;9.028;2023-05-23T07:50:39;16.30;99.90
3790;DHT22;1910;49.042;9.028;2023-05-23T07:53:05;16.60;99.90
3790;DHT22;1910;49.042;9.028;2023-05-23T07:55:30;16.60;99.90
3790;DHT22;1910;49.042;9.028;2023-05-23T07:57:56;16.60;99.90
3790;DHT22;1910;49.042;9.028;2023-05-23T08:00:21;16.40;99.90
3790;DHT22;1910;49.042;9.028;2023-05-23T08:02:47;16.50;99.90
3790;DHT22;1910;49.042;9.028;2023-05-23T08:05:12;16.60;99.90
3790;DHT22;1910;49.042;9.028;2023-05-23T08:10:04;16.50;99.90
3790;DHT22;1910;49.042;9.028;2023-05-23T08:14:56;16.90;99.90
3790;DHT22;1910;49.042;9.028;2023-05-23T08:19:48;17.10;99.90
3790;DHT22;1910;49.042;9.028;2023-05-23T08:22:13;17.10;99.90
3790;DHT22;1910;49.042;9.028;2023-05-23T08:24:39;16.90;99.90
3790;DHT22;1910;49.042;9.028;2023-05-23T08:29:32;17.20;99.90
3790;DHT22;1910;49.042;9.028;2023-05-23T08:31:59;17.20;99.90
3790;DHT22;1910;49.042;9.028;2023-05-23T08:36:51;17.30;99.90
3790;DHT22;1910;49.042;9.028;2023-05-23T08:39:17;17.30;99.90
3790;DHT22;1910;49.042;9.028;2023-05-23T08:41:42;17.50;99.90
3790;DHT22;1910;49.042;9.028;2023-05-23T08:44:08;17.50;99.90
3790;DHT22;1910;49.042;9.028;2023-05-23T08:46:38;17.60;99.90
3790;DHT22;1910;49.042;9.028;2023-05-23T08:49:06;17.90;99.90
3790;DHT22;1910;49.042;9.028;2023-05-23T08:51:34;17.90;99.90
3790;DHT22;1910;49.042;9.028;2023-05-23T08:54:02;18.10;99.90
3790;DHT22;1910;49.042;9.028;2023-05-23T09:01:21;17.90;99.90
3790;DHT22;1910;49.042;9.028;2023-05-23T09:08:43;18.60;99.90
3790;DHT22;1910;49.042;9.028;2023-05-23T09:11:10;18.80;99.90
3790;DHT22;1910;49.042;9.028;2023-05-23T09:16:05;19.10;99.90
3790;DHT22;1910;49.042;9.028;2023-05-23T09:18:39;19.40;99.90
3790;DHT22;1910;49.042;9.028;2023-05-23T09:26:04;19.80;99.90
3790;DHT22;1910;49.042;9.028;2023-05-23T09:28:34;19.40;99.90
3790;DHT22;1910;49.042;9.028;2023-05-23T09:31:00;19.30;99.90
3790;DHT22;1910;49.042;9.028;2023-05-23T09:33:56;18.90;99.90
3790;DHT22;1910;49.042;9.028;2023-05-23T09:36:20;19.10;99.90
3790;DHT22;1910;49.042;9.028;2023-05-23T09:38:46;19.10;99.90
3790;DHT22;1910;49.042;9.028;2023-05-23T09:43:52;19.30;99.90
3790;DHT22;1910;49.042;9.028;2023-05-23T09:46:20;19.50;99.90
3790;DHT22;1910;49.042;9.028;2023-05-23T09:48:49;19.40;99.90
3790;DHT22;1910;49.042;9.028;2023-05-23T09:51:18;19.10;99.90
3790;DHT22;1910;49.042;9.028;2023-05-23T09:53:48;19.10;99.90
3790;DHT22;1910;49.042;9.028;2023-05-23T09:56:15;18.90;99.90
3790;DHT22;1910;49.042;9.028;2023-05-23T09:58:45;19.30;99.90
3790;DHT22;1910;49.042;9.028;2023-05-23T10:01:12;19.50;99.90
3790;DHT22;1910;49.042;9.028;2023-05-23T10:03:48;20.00;99.90
3790;DHT22;1910;49.042;9.028;2023-05-23T10:06:24;20.30;99.90
3790;DHT22;1910;49.042;9.028;2023-05-23T10:08:58;20.40;99.90
3790;DHT22;1910;49.042;9.028;2023-05-23T10:14:00;20.40;99.90
3790;DHT22;1910;49.042;9.028;2023-05-23T10:19:41;20.10;99.90
3790;DHT22;1910;49.042;9.028;2023-05-23T10:22:09;20.10;99.90
3790;DHT22;1910;49.042;9.028;2023-05-23T10:27:02;19.80;99.90
3790;DHT22;1910;49.042;9.028;2023-05-23T10:29:29;19.70;99.90
3790;DHT22;1910;49.042;9.028;2023-05-23T10:31:55;19.60;99.90
3790;DHT22;1910;49.042;9.028;2023-05-23T10:37:24;18.30;99.90
3790;DHT22;1910;49.042;9.028;2023-05-23T10:40:05;18.50;99.90
3790;DHT22;1910;49.042;9.028;2023-05-23T10:42:48;18.60;99.90
3790;DHT22;1910;49.042;9.028;2023-05-23T10:45:20;18.60;99.90
3790;DHT22;1910;49.042;9.028;2023-05-23T10:47:47;19.10;99.90
3790;DHT22;1910;49.042;9.028;2023-05-23T10:50:15;19.50;99.90
3790;DHT22;1910;49.042;9.028;2023-05-23T10:55:15;20.10;99.90
3790;DHT22;1910;49.042;9.028;2023-05-23T11:00:13;20.30;99.90
3790;DHT22;1910;49.042;9.028;2023-05-23T11:02:58;20.30;99.90
3790;DHT22;1910;49.042;9.028;2023-05-23T11:05:28;20.20;99.90
3790;DHT22;1910;49.042;9.028;2023-05-23T11:08:09;20.60;99.90
3790;DHT22;1910;49.042;9.028;2023-05-23T11:10:51;20.50;99.90
3790;DHT22;1910;49.042;9.028;2023-05-23T11:13:18;21.80;99.90
3790;DHT22;1910;49.042;9.028;2023-05-23T11:18:27;21.30;99.90
3790;DHT22;1910;49.042;9.028;2023-05-23T11:20:57;20.90;99.90
3790;DHT22;1910;49.042;9.028;2023-05-23T11:23:39;20.80;99.90
3790;DHT22;1910;49.042;9.028;2023-05-23T11:26:28;20.40;99.90
3790;DHT22;1910;49.042;9.028;2023-05-23T11:28:55;20.10;99.90
3790;DHT22;1910;49.042;9.028;2023-05-23T11:31:22;19.90;99.90
3790;DHT22;1910;49.042;9.028;2023-05-23T11:33:50;19.30;99.90
3790;DHT22;1910;49.042;9.028;2023-05-23T11:36:16;19.30;99.90
3790;DHT22;1910;49.042;9.028;2023-05-23T11:38:42;19.80;99.90
3790;DHT22;1910;49.042;9.028;2023-05-23T11:43:33;20.40;99.90
3790;DHT22;1910;49.042;9.028;2023-05-23T11:46:07;20.80;99.90
3790;DHT22;1910;49.042;9.028;2023-05-23T11:48:32;20.80;99.90
3790;DHT22;1910;49.042;9.028;2023-05-23T11:53:26;21.00;99.90
3790;DHT22;1910;49.042;9.028;2023-05-23T11:55:56;21.00;99.90
3790;DHT22;1910;49.042;9.028;2023-05-23T11:58:27;21.10;99.90
3790;DHT22;1910;49.042;9.028;2023-05-23T12:01:00;21.10;99.90
3790;DHT22;1910;49.042;9.028;2023-05-23T12:03:27;20.80;99.90
3790;DHT22;1910;49.042;9.028;2023-05-23T12:05:57;20.80;99.90
3790;DHT22;1910;49.042;9.028;2023-05-23T12:08:23;20.00;99.90
3790;DHT22;1910;49.042;9.028;2023-05-23T12:10:59;20.50;99.90
3790;DHT22;1910;49.042;9.028;2023-05-23T12:13:27;20.40;99.90
3790;DHT22;1910;49.042;9.028;2023-05-23T12:15:59;19.50;99.90
3790;DHT22;1910;49.042;9.028;2023-05-23T12:18:28;19.40;99.90
3790;DHT22;1910;49.042;9.028;2023-05-23T12:20:54;19.40;99.90
3790;DHT22;1910;49.042;9.028;2023-05-23T12:23:23;19.40;99.90
3790;DHT22;1910;49.042;9.028;2023-05-23T12:25:53;19.10;99.90
3790;DHT22;1910;49.042;9.028;2023-05-23T12:28:20;19.20;99.90
3790;DHT22;1910;49.042;9.028;2023-05-23T12:30:45;19.30;99.90
3790;DHT22;1910;49.042;9.028;2023-05-23T12:33:11;18.80;99.90
3790;DHT22;1910;49.042;9.028;2023-05-23T12:35:41;18.90;99.90
3790;DHT22;1910;49.042;9.028;2023-05-23T12:38:07;19.20;99.90
3790;DHT22;1910;49.042;9.028;2023-05-23T12:40:34;19.50;99.90
3790;DHT22;1910;49.042;9.028;2023-05-23T12:43:00;19.40;99.90
3790;DHT22;1910;49.042;9.028;2023-05-23T12:45:35;19.80;99.90
3790;DHT22;1910;49.042;9.028;2023-05-23T12:48:10;20.30;99.90
3790;DHT22;1910;49.042;9.028;2023-05-23T12:50:35;20.10;99.90
3790;DHT22;1910;49.042;9.028;2023-05-23T12:57:53;20.90;99.90
3790;DHT22;1910;49.042;9.028;2023-05-23T13:00:20;20.70;99.90
3790;DHT22;1910;49.042;9.028;2023-05-23T13:41:49;21.40;99.90
3790;DHT22;1910;49.042;9.028;2023-05-23T13:44:14;21.40;99.90
3790;DHT22;1910;49.042;9.028;2023-05-23T13:46:41;21.40;99.90
3790;DHT22;1910;49.042;9.028;2023-05-23T13:49:06;21.30;99.90
3790;DHT22;1910;49.042;9.028;2023-05-23T13:58:49;20.80;99.90
3790;DHT22;1910;49.042;9.028;2023-05-23T14:03:41;21.20;99.90
3790;DHT22;1910;49.042;9.028;2023-05-23T14:06:07;21.20;99.90
3790;DHT22;1910;49.042;9.028;2023-05-23T14:08:32;20.60;99.90
3790;DHT22;1910;49.042;9.028;2023-05-23T14:10:58;20.60;99.90
3790;DHT22;1910;49.042;9.028;2023-05-23T14:13:23;21.00;99.90
3790;DHT22;1910;49.042;9.028;2023-05-23T14:15:50;21.20;99.90
3790;DHT22;1910;49.042;9.028;2023-05-23T14:18:16;21.20;99.90
3790;DHT22;1910;49.042;9.028;2023-05-23T14:20:41;21.20;99.90
3790;DHT22;1910;49.042;9.028;2023-05-23T14:25:33;21.30;99.90
3790;DHT22;1910;49.042;9.028;2023-05-23T14:27:58;20.80;99.90
3790;DHT22;1910;49.042;9.028;2023-05-23T14:30:24;20.70;99.90
3790;DHT22;1910;49.042;9.028;2023-05-23T14:32:49;20.10;99.90
3790;DHT22;1910;49.042;9.028;2023-05-23T14:37:41;20.30;99.90
3790;DHT22;1910;49.042;9.028;2023-05-23T14:40:07;20.00;99.90
3790;DHT22;1910;49.042;9.028;2023-05-23T14:42:34;20.00;99.90
3790;DHT22;1910;49.042;9.028;2023-05-23T14:45:00;20.10;99.90
3790;DHT22;1910;49.042;9.028;2023-05-23T14:49:52;20.30;99.90
3790;DHT22;1910;49.042;9.028;2023-05-23T14:54:43;20.40;99.90
3790;DHT22;1910;49.042;9.028;2023-05-23T14:57:09;20.50;99.90
3790;DHT22;1910;49.042;9.028;2023-05-23T14:59:34;20.20;99.90
3790;DHT22;1910;49.042;9.028;2023-05-23T15:02:02;20.60;99.90
3790;DHT22;1910;49.042;9.028;2023-05-23T15:06:53;20.70;99.90
3790;DHT22;1910;49.042;9.028;2023-05-23T15:11:45;20.60;99.90
3790;DHT22;1910;49.042;9.028;2023-05-23T15:14:13;20.20;99.90
3790;DHT22;1910;49.042;9.028;2023-05-23T15:16:39;20.20;99.90
3790;DHT22;1910;49.042;9.028;2023-05-23T15:19:05;20.20;99.90
3790;DHT22;1910;49.042;9.028;2023-05-23T15:21:31;20.30;99.90
3790;DHT22;1910;49.042;9.028;2023-05-23T15:23:58;20.20;99.90
3790;DHT22;1910;49.042;9.028;2023-05-23T15:26:24;20.10;99.90
3790;DHT22;1910;49.042;9.028;2023-05-23T15:28:49;19.70;99.90
3790;DHT22;1910;49.042;9.028;2023-05-23T15:31:15;19.50;99.90
3790;DHT22;1910;49.042;9.028;2023-05-23T15:33:40;19.40;99.90
3790;DHT22;1910;49.042;9.028;2023-05-23T15:36:06;19.30;99.90
3790;DHT22;1910;49.042;9.028;2023-05-23T15:38:32;19.50;99.90
3790;DHT22;1910;49.042;9.028;2023-05-23T15:40:57;19.80;99.90
3790;DHT22;1910;49.042;9.028;2023-05-23T15:43:24;19.80;99.90
3790;DHT22;1910;49.042;9.028;2023-05-23T15:45:50;19.80;99.90
3790;DHT22;1910;49.042;9.028;2023-05-23T15:48:16;19.70;99.90
3790;DHT22;1910;49.042;9.028;2023-05-23T15:50:42;19.30;99.90
3790;DHT22;1910;49.042;9.028;2023-05-23T15:53:07;19.40;99.90
3790;DHT22;1910;49.042;9.028;2023-05-23T15:55:33;19.50;99.90
3790;DHT22;1910;49.042;9.028;2023-05-23T15:57:59;19.40;99.90
3790;DHT22;1910;49.042;9.028;2023-05-23T16:05:16;19.60;99.90
3790;DHT22;1910;49.042;9.028;2023-05-23T16:07:43;19.80;99.90
3790;DHT22;1910;49.042;9.028;2023-05-23T16:10:08;19.70;99.90
3790;DHT22;1910;49.042;9.028;2023-05-23T16:12:34;19.60;99.90
3790;DHT22;1910;49.042;9.028;2023-05-23T16:14:59;19.40;99.90
3790;DHT22;1910;49.042;9.028;2023-05-23T16:17:25;19.70;99.90
3790;DHT22;1910;49.042;9.028;2023-05-23T16:19:50;19.40;99.90
3790;DHT22;1910;49.042;9.028;2023-05-23T16:22:16;19.40;99.90
3790;DHT22;1910;49.042;9.028;2023-05-23T16:24:41;19.40;99.90
3790;DHT22;1910;49.042;9.028;2023-05-23T16:27:07;19.90;99.90
3790;DHT22;1910;49.042;9.028;2023-05-23T16:29:32;19.80;99.90
3790;DHT22;1910;49.042;9.028;2023-05-23T16:31:58;19.70;99.90
3790;DHT22;1910;49.042;9.028;2023-05-23T16:34:23;19.70;99.90
3790;DHT22;1910;49.042;9.028;2023-05-23T16:36:49;19.60;99.90
3790;DHT22;1910;49.042;9.028;2023-05-23T16:39:14;19.20;99.90
3790;DHT22;1910;49.042;9.028;2023-05-23T16:41:40;19.00;99.90
3790;DHT22;1910;49.042;9.028;2023-05-23T16:44:06;18.80;99.90
3790;DHT22;1910;49.042;9.028;2023-05-23T16:46:31;18.70;99.90
3790;DHT22;1910;49.042;9.028;2023-05-23T16:48:57;18.60;99.90
3790;DHT22;1910;49.042;9.028;2023-05-23T16:51:22;18.60;99.90
3790;DHT22;1910;49.042;9.028;2023-05-23T16:53:48;18.40;99.90
3790;DHT22;1910;49.042;9.028;2023-05-23T16:56:14;18.50;99.90
3790;DHT22;1910;49.042;9.028;2023-05-23T16:58:39;18.50;99.90
3790;DHT22;1910;49.042;9.028;2023-05-23T17:01:06;18.40;99.90
3790;DHT22;1910;49.042;9.028;2023-05-23T17:03:32;18.40;99.90
3790;DHT22;1910;49.042;9.028;2023-05-23T17:05:58;18.70;99.90
3790;DHT22;1910;49.042;9.028;2023-05-23T17:08:24;18.60;99.90
3790;DHT22;1910;49.042;9.028;2023-05-23T17:10:49;18.70;99.90
3790;DHT22;1910;49.042;9.028;2023-05-23T17:13:15;18.80;99.90
3790;DHT22;1910;49.042;9.028;2023-05-23T17:15:41;18.60;99.90
3790;DHT22;1910;49.042;9.028;2023-05-23T17:18:07;18.40;99.90
3790;DHT22;1910;49.042;9.028;2023-05-23T17:20:32;18.40;99.90
3790;DHT22;1910;49.042;9.028;2023-05-23T17:22:57;18.40;99.90
3790;DHT22;1910;49.042;9.028;2023-05-23T17:25:23;18.50;99.90
3790;DHT22;1910;49.042;9.028;2023-05-23T17:27:49;18.40;99.90
3790;DHT22;1910;49.042;9.028;2023-05-23T17:30:14;18.20;99.90
3790;DHT22;1910;49.042;9.028;2023-05-23T17:32:43;18.00;99.90
3790;DHT22;1910;49.042;9.028;2023-05-23T17:35:09;18.00;99.90
3790;DHT22;1910;49.042;9.028;2023-05-23T17:37:35;18.00;99.90
3790;DHT22;1910;49.042;9.028;2023-05-23T17:40:00;17.80;99.90
3790;DHT22;1910;49.042;9.028;2023-05-23T17:42:26;17.90;99.90
3790;DHT22;1910;49.042;9.028;2023-05-23T17:44:51;17.80;99.90
3790;DHT22;1910;49.042;9.028;2023-05-23T17:47:17;17.80;99.90
3790;DHT22;1910;49.042;9.028;2023-05-23T17:49:43;17.80;99.90
3790;DHT22;1910;49.042;9.028;2023-05-23T17:52:08;17.70;99.90
3790;DHT22;1910;49.042;9.028;2023-05-23T17:54:38;17.70;99.90
3790;DHT22;1910;49.042;9.028;2023-05-23T17:57:04;17.60;99.90
3790;DHT22;1910;49.042;9.028;2023-05-23T17:59:29;17.60;99.90
3790;DHT22;1910;49.042;9.028;2023-05-23T18:01:56;17.60;99.90
3790;DHT22;1910;49.042;9.028;2023-05-23T18:04:22;17.40;99.90
3790;DHT22;1910;49.042;9.028;2023-05-23T18:06:49;17.40;99.90
3790;DHT22;1910;49.042;9.028;2023-05-23T18:09:14;17.30;99.90
3790;DHT22;1910;49.042;9.028;2023-05-23T18:11:40;17.30;99.90
3790;DHT22;1910;49.042;9.028;2023-05-23T18:14:07;17.30;99.90
3790;DHT22;1910;49.042;9.028;2023-05-23T18:16:32;17.30;99.90
3790;DHT22;1910;49.042;9.028;2023-05-23T18:18:58;17.20;99.90
3790;DHT22;1910;49.042;9.028;2023-05-23T18:21:25;17.10;99.90
3790;DHT22;1910;49.042;9.028;2023-05-23T18:23:51;17.00;99.90
3790;DHT22;1910;49.042;9.028;2023-05-23T18:28:43;17.00;99.90
3790;DHT22;1910;49.042;9.028;2023-05-23T18:31:08;17.00;99.90
3790;DHT22;1910;49.042;9.028;2023-05-23T18:33:34;16.90;99.90
3790;DHT22;1910;49.042;9.028;2023-05-23T18:35:59;16.90;99.90
3790;DHT22;1910;49.042;9.028;2023-05-23T18:38:25;16.80;99.90
3790;DHT22;1910;49.042;9.028;2023-05-23T18:40:51;16.70;99.90
3790;DHT22;1910;49.042;9.028;2023-05-23T18:43:16;16.70;99.90
3790;DHT22;1910;49.042;9.028;2023-05-23T18:45:42;16.70;99.90
3790;DHT22;1910;49.042;9.028;2023-05-23T18:48:08;16.60;99.90
3790;DHT22;1910;49.042;9.028;2023-05-23T18:50:33;16.60;99.90
3790;DHT22;1910;49.042;9.028;2023-05-23T18:52:59;16.40;99.90
3790;DHT22;1910;49.042;9.028;2023-05-23T18:55:25;16.40;99.90
3790;DHT22;1910;49.042;9.028;2023-05-23T18:57:51;16.30;99.90
3790;DHT22;1910;49.042;9.028;2023-05-23T19:00:18;16.30;99.90
3790;DHT22;1910;49.042;9.028;2023-05-23T19:02:44;16.20;99.90
3790;DHT22;1910;49.042;9.028;2023-05-23T19:05:10;16.20;99.90
3790;DHT22;1910;49.042;9.028;2023-05-23T19:07:36;16.20;99.90
3790;DHT22;1910;49.042;9.028;2023-05-23T19:10:02;16.00;99.90
3790;DHT22;1910;49.042;9.028;2023-05-23T19:12:27;16.00;99.90
3790;DHT22;1910;49.042;9.028;2023-05-23T19:14:53;16.00;99.90
3790;DHT22;1910;49.042;9.028;2023-05-23T19:17:18;15.90;99.90
3790;DHT22;1910;49.042;9.028;2023-05-23T19:19:44;15.90;99.90
3790;DHT22;1910;49.042;9.028;2023-05-23T19:22:09;15.80;99.90
3790;DHT22;1910;49.042;9.028;2023-05-23T19:24:37;15.80;99.90
3790;DHT22;1910;49.042;9.028;2023-05-23T19:27:02;15.70;99.90
3790;DHT22;1910;49.042;9.028;2023-05-23T19:31:56;15.60;99.90
3790;DHT22;1910;49.042;9.028;2023-05-23T19:34:22;15.50;99.90
3790;DHT22;1910;49.042;9.028;2023-05-23T19:36:47;15.50;99.90
3790;DHT22;1910;49.042;9.028;2023-05-23T19:39:13;15.40;99.90
3790;DHT22;1910;49.042;9.028;2023-05-23T19:41:39;15.30;99.90
3790;DHT22;1910;49.042;9.028;2023-05-23T19:44:06;15.20;99.90
3790;DHT22;1910;49.042;9.028;2023-05-23T19:46:31;15.20;99.90
3790;DHT22;1910;49.042;9.028;2023-05-23T19:48:57;15.10;99.90
3790;DHT22;1910;49.042;9.028;2023-05-23T19:51:23;15.00;99.90
3790;DHT22;1910;49.042;9.028;2023-05-23T19:53:49;14.90;99.90
3790;DHT22;1910;49.042;9.028;2023-05-23T19:56:15;14.90;99.90
3790;DHT22;1910;49.042;9.028;2023-05-23T19:58:41;14.80;99.90
3790;DHT22;1910;49.042;9.028;2023-05-23T20:01:07;14.80;99.90
3790;DHT22;1910;49.042;9.028;2023-05-23T20:03:33;14.70;99.90
3790;DHT22;1910;49.042;9.028;2023-05-23T20:05:58;14.70;99.90
3790;DHT22;1910;49.042;9.028;2023-05-23T20:08:24;14.70;99.90
3790;DHT22;1910;49.042;9.028;2023-05-23T20:10:50;14.70;99.90
3790;DHT22;1910;49.042;9.028;2023-05-23T20:13:15;14.70;99.90
3790;DHT22;1910;49.042;9.028;2023-05-23T20:15:41;14.70;99.90
3790;DHT22;1910;49.042;9.028;2023-05-23T20:18:06;14.70;99.90
3790;DHT22;1910;49.042;9.028;2023-05-23T20:20:32;14.70;99.90
3790;DHT22;1910;49.042;9.028;2023-05-23T20:22:58;14.70;99.90
3790;DHT22;1910;49.042;9.028;2023-05-23T20:25:23;14.70;99.90
3790;DHT22;1910;49.042;9.028;2023-05-23T20:27:53;14.70;99.90
3790;DHT22;1910;49.042;9.028;2023-05-23T20:30:18;14.70;99.90
3790;DHT22;1910;49.042;9.028;2023-05-23T20:32:44;14.60;99.90
3790;DHT22;1910;49.042;9.028;2023-05-23T20:35:10;14.60;99.90
3790;DHT22;1910;49.042;9.028;2023-05-23T20:37:35;14.60;99.90
3790;DHT22;1910;49.042;9.028;2023-05-23T20:40:03;14.60;99.90
3790;DHT22;1910;49.042;9.028;2023-05-23T20:42:31;14.90;99.90
3790;DHT22;1910;49.042;9.028;2023-05-23T20:44:57;14.60;99.90
3790;DHT22;1910;49.042;9.028;2023-05-23T20:47:23;14.60;99.90
3790;DHT22;1910;49.042;9.028;2023-05-23T20:49:49;14.50;99.90
3790;DHT22;1910;49.042;9.028;2023-05-23T20:52:15;14.50;99.90
3790;DHT22;1910;49.042;9.028;2023-05-23T20:54:40;14.50;99.90
3790;DHT22;1910;49.042;9.028;2023-05-23T20:59:32;14.40;99.90
3790;DHT22;1910;49.042;9.028;2023-05-23T21:01:58;14.40;99.90
3790;DHT22;1910;49.042;9.028;2023-05-23T21:04:23;14.30;99.90
3790;DHT22;1910;49.042;9.028;2023-05-23T21:06:49;14.30;99.90